sensor_id;sensor_type;location;lat;lon;timestamp;temperature;humidity
2439;DHT22;14509;47.992;7.848;2023-03-13T00:00:47;17.60;43.10
2439;DHT22;14509;47.992;7.848;2023-03-13T00:02:57;17.60;43.00
2439;DHT22;14509;47.992;7.848;2023-03-13T00:05:04;17.50;43.10
2439;DHT22;14509;47.992;7.848;2023-03-13T00:07:06;17.60;43.30
2439;DHT22;14509;47.992;7.848;2023-03-13T00:09:21;17.60;43.30
2439;DHT22;14509;47.992;7.848;2023-03-13T00:11:37;17.60;43.20
2439;DHT22;14509;47.992;7.848;2023-03-13T00:13:40;17.70;43.10
2439;DHT22;14509;47.992;7.848;2023-03-13T00:15:44;17.90;43.40
2439;DHT22;14509;47.992;7.848;2023-03-13T00:17:54;17.70;43.00
2439;DHT22;14509;47.992;7.848;2023-03-13T00:20:01;17.70;43.00
2439;DHT22;14509;47.992;7.848;2023-03-13T00:22:10;17.40;42.80
2439;DHT22;14509;47.992;7.848;2023-03-13T00:24:22;17.70;43.00
2439;DHT22;14509;47.992;7.848;2023-03-13T00:26:25;17.60;43.10
2439;DHT22;14509;47.992;7.848;2023-03-13T00:28:32;17.60;43.10
2439;DHT22;14509;47.992;7.848;2023-03-13T00:30:34;17.60;43.10
2439;DHT22;14509;47.992;7.848;2023-03-13T00:32:43;18.00;43.30
2439;DHT22;14509;47.992;7.848;2023-03-13T00:34:52;17.70;43.10
2439;DHT22;14509;47.992;7.848;2023-03-13T00:36:54;17.90;43.10
2439;DHT22;14509;47.992;7.848;2023-03-13T00:39:00;17.70;42.80
2439;DHT22;14509;47.992;7.848;2023-03-13T00:41:10;17.80;42.90
2439;DHT22;14509;47.992;7.848;2023-03-13T00:43:12;17.90;42.80
2439;DHT22;14509;47.992;7.848;2023-03-13T00:45:25;17.90;42.60
2439;DHT22;14509;47.992;7.848;2023-03-13T00:47:29;18.00;42.60
2439;DHT22;14509;47.992;7.848;2023-03-13T00:49:44;17.90;42.40
2439;DHT22;14509;47.992;7.848;2023-03-13T00:51:53;17.90;42.40
2439;DHT22;14509;47.992;7.848;2023-03-13T00:53:58;17.90;42.50
2439;DHT22;14509;47.992;7.848;2023-03-13T00:56:02;17.90;42.50
2439;DHT22;14509;47.992;7.848;2023-03-13T00:58:07;17.90;43.20
2439;DHT22;14509;47.992;7.848;2023-03-13T01:00:12;17.90;42.60
2439;DHT22;14509;47.992;7.848;2023-03-13T01:02:21;17.80;43.00
2439;DHT22;14509;47.992;7.848;2023-03-13T01:04:23;17.90;43.00
2439;DHT22;14509;47.992;7.848;2023-03-13T01:06:28;17.90;42.90
2439;DHT22;14509;47.992;7.848;2023-03-13T01:08:32;17.90;43.20
2439;DHT22;14509;47.992;7.848;2023-03-13T01:10:36;17.80;42.90
2439;DHT22;14509;47.992;7.848;2023-03-13T01:12:38;17.90;43.10
2439;DHT22;14509;47.992;7.848;2023-03-13T01:14:40;17.90;43.00
2439;DHT22;14509;47.992;7.848;2023-03-13T01:16:42;18.00;42.70
2439;DHT22;14509;47.992;7.848;2023-03-13T01:18:47;18.10;42.80
2439;DHT22;14509;47.992;7.848;2023-03-13T01:20:49;18.10;42.70
2439;DHT22;14509;47.992;7.848;2023-03-13T01:22:53;18.10;42.60
2439;DHT22;14509;47.992;7.848;2023-03-13T01:24:55;18.10;43.10
2439;DHT22;14509;47.992;7.848;2023-03-13T01:27:00;18.20;43.70
2439;DHT22;14509;47.992;7.848;2023-03-13T01:29:02;18.30;44.30
2439;DHT22;14509;47.992;7.848;2023-03-13T01:31:11;18.20;44.50
2439;DHT22;14509;47.992;7.848;2023-03-13T01:33:16;18.10;45.20
2439;DHT22;14509;47.992;7.848;2023-03-13T01:35:19;18.00;45.80
2439;DHT22;14509;47.992;7.848;2023-03-13T01:37:32;18.20;46.00
2439;DHT22;14509;47.992;7.848;2023-03-13T01:39:43;17.50;46.10
2439;DHT22;14509;47.992;7.848;2023-03-13T01:41:45;17.40;47.00
2439;DHT22;14509;47.992;7.848;2023-03-13T01:43:48;17.40;47.50
2439;DHT22;14509;47.992;7.848;2023-03-13T01:45:59;17.10;48.00
2439;DHT22;14509;47.992;7.848;2023-03-13T01:48:05;17.10;48.20
2439;DHT22;14509;47.992;7.848;2023-03-13T01:50:24;17.10;48.20
2439;DHT22;14509;47.992;7.848;2023-03-13T01:52:47;16.90;47.90
2439;DHT22;14509;47.992;7.848;2023-03-13T01:55:00;16.90;47.80
2439;DHT22;14509;47.992;7.848;2023-03-13T01:57:09;16.90;47.60
2439;DHT22;14509;47.992;7.848;2023-03-13T01:59:27;17.00;47.90
2439;DHT22;14509;47.992;7.848;2023-03-13T02:01:29;16.90;48.20
2439;DHT22;14509;47.992;7.848;2023-03-13T02:03:37;16.90;47.70
2439;DHT22;14509;47.992;7.848;2023-03-13T02:05:43;16.60;47.50
2439;DHT22;14509;47.992;7.848;2023-03-13T02:07:57;16.80;48.10
2439;DHT22;14509;47.992;7.848;2023-03-13T02:10:04;16.90;48.20
2439;DHT22;14509;47.992;7.848;2023-03-13T02:12:13;17.00;47.80
2439;DHT22;14509;47.992;7.848;2023-03-13T02:14:21;17.00;47.50
2439;DHT22;14509;47.992;7.848;2023-03-13T02:16:28;17.20;47.50
2439;DHT22;14509;47.992;7.848;2023-03-13T02:18:30;17.00;47.90
2439;DHT22;14509;47.992;7.848;2023-03-13T02:20:37;16.90;47.80
2439;DHT22;14509;47.992;7.848;2023-03-13T02:22:48;17.00;47.50
2439;DHT22;14509;47.992;7.848;2023-03-13T02:24:57;17.00;47.30
2439;DHT22;14509;47.992;7.848;2023-03-13T02:27:06;17.10;47.00
2439;DHT22;14509;47.992;7.848;2023-03-13T02:29:19;17.30;47.10
2439;DHT22;14509;47.992;7.848;2023-03-13T02:31:21;17.60;47.30
2439;DHT22;14509;47.992;7.848;2023-03-13T02:33:30;17.20;46.90
2439;DHT22;14509;47.992;7.848;2023-03-13T02:35:37;17.30;46.80
2439;DHT22;14509;47.992;7.848;2023-03-13T02:37:50;17.30;47.10
2439;DHT22;14509;47.992;7.848;2023-03-13T02:40:09;17.40;46.70
2439;DHT22;14509;47.992;7.848;2023-03-13T02:42:13;17.40;46.40
2439;DHT22;14509;47.992;7.848;2023-03-13T02:44:19;17.40;46.40
2439;DHT22;14509;47.992;7.848;2023-03-13T02:46:22;17.40;46.30
2439;DHT22;14509;47.992;7.848;2023-03-13T02:48:31;17.50;46.40
2439;DHT22;14509;47.992;7.848;2023-03-13T02:50:55;17.80;46.90
2439;DHT22;14509;47.992;7.848;2023-03-13T02:53:06;17.40;46.50
2439;DHT22;14509;47.992;7.848;2023-03-13T02:55:11;17.70;46.90
2439;DHT22;14509;47.992;7.848;2023-03-13T02:57:25;17.40;46.60
2439;DHT22;14509;47.992;7.848;2023-03-13T02:59:36;17.50;46.70
2439;DHT22;14509;47.992;7.848;2023-03-13T03:01:41;17.40;46.60
2439;DHT22;14509;47.992;7.848;2023-03-13T03:03:52;17.40;46.60
2439;DHT22;14509;47.992;7.848;2023-03-13T03:06:05;17.30;46.80
2439;DHT22;14509;47.992;7.848;2023-03-13T03:08:12;17.30;47.10
2439;DHT22;14509;47.992;7.848;2023-03-13T03:10:14;17.30;47.10
2439;DHT22;14509;47.992;7.848;2023-03-13T03:12:24;17.40;47.00
2439;DHT22;14509;47.992;7.848;2023-03-13T03:14:40;17.50;47.00
2439;DHT22;14509;47.992;7.848;2023-03-13T03:16:47;17.40;47.20
2439;DHT22;14509;47.992;7.848;2023-03-13T03:18:52;17.20;47.70
2439;DHT22;14509;47.992;7.848;2023-03-13T03:20:54;17.10;48.10
2439;DHT22;14509;47.992;7.848;2023-03-13T03:22:57;17.10;48.00
2439;DHT22;14509;47.992;7.848;2023-03-13T03:25:04;17.10;48.10
2439;DHT22;14509;47.992;7.848;2023-03-13T03:27:17;17.10;48.50
2439;DHT22;14509;47.992;7.848;2023-03-13T03:29:30;17.20;48.40
2439;DHT22;14509;47.992;7.848;2023-03-13T03:31:33;17.10;48.80
2439;DHT22;14509;47.992;7.848;2023-03-13T03:33:36;17.30;48.80
2439;DHT22;14509;47.992;7.848;2023-03-13T03:35:44;17.20;48.70
2439;DHT22;14509;47.992;7.848;2023-03-13T03:37:48;17.20;48.80
2439;DHT22;14509;47.992;7.848;2023-03-13T03:39:51;17.20;48.80
2439;DHT22;14509;47.992;7.848;2023-03-13T03:41:53;17.10;48.90
2439;DHT22;14509;47.992;7.848;2023-03-13T03:43:59;17.10;49.00
2439;DHT22;14509;47.992;7.848;2023-03-13T03:46:14;16.80;48.80
2439;DHT22;14509;47.992;7.848;2023-03-13T03:48:21;17.10;49.50
2439;DHT22;14509;47.992;7.848;2023-03-13T03:50:23;17.00;50.60
2439;DHT22;14509;47.992;7.848;2023-03-13T03:52:31;16.80;51.60
2439;DHT22;14509;47.992;7.848;2023-03-13T03:54:33;16.60;52.50
2439;DHT22;14509;47.992;7.848;2023-03-13T03:56:38;16.30;53.50
2439;DHT22;14509;47.992;7.848;2023-03-13T03:58:45;15.90;54.60
2439;DHT22;14509;47.992;7.848;2023-03-13T04:00:57;15.70;55.20
2439;DHT22;14509;47.992;7.848;2023-03-13T04:03:10;15.60;56.20
2439;DHT22;14509;47.992;7.848;2023-03-13T04:05:20;15.50;55.40
2439;DHT22;14509;47.992;7.848;2023-03-13T04:07:37;15.40;55.60
2439;DHT22;14509;47.992;7.848;2023-03-13T04:09:42;15.30;55.50
2439;DHT22;14509;47.992;7.848;2023-03-13T04:11:52;15.20;55.70
2439;DHT22;14509;47.992;7.848;2023-03-13T04:13:57;15.50;55.50
2439;DHT22;14509;47.992;7.848;2023-03-13T04:16:07;15.80;55.50
2439;DHT22;14509;47.992;7.848;2023-03-13T04:18:18;15.30;54.60
2439;DHT22;14509;47.992;7.848;2023-03-13T04:20:24;15.40;54.10
2439;DHT22;14509;47.992;7.848;2023-03-13T04:22:31;15.80;54.40
2439;DHT22;14509;47.992;7.848;2023-03-13T04:24:36;15.50;53.80
2439;DHT22;14509;47.992;7.848;2023-03-13T04:26:42;15.50;53.40
2439;DHT22;14509;47.992;7.848;2023-03-13T04:28:49;15.50;53.30
2439;DHT22;14509;47.992;7.848;2023-03-13T04:31:04;15.50;52.90
2439;DHT22;14509;47.992;7.848;2023-03-13T04:33:34;15.90;53.00
2439;DHT22;14509;47.992;7.848;2023-03-13T04:35:49;15.90;52.30
2439;DHT22;14509;47.992;7.848;2023-03-13T04:38:16;16.20;52.00
2439;DHT22;14509;47.992;7.848;2023-03-13T04:40:51;16.30;51.60
2439;DHT22;14509;47.992;7.848;2023-03-13T04:43:11;16.40;51.20
2439;DHT22;14509;47.992;7.848;2023-03-13T04:45:46;16.50;50.90
2439;DHT22;14509;47.992;7.848;2023-03-13T04:48:02;16.50;50.80
2439;DHT22;14509;47.992;7.848;2023-03-13T04:50:16;16.60;50.50
2439;DHT22;14509;47.992;7.848;2023-03-13T04:52:43;16.60;50.50
2439;DHT22;14509;47.992;7.848;2023-03-13T04:55:10;16.70;50.80
2439;DHT22;14509;47.992;7.848;2023-03-13T04:57:57;16.70;51.10
2439;DHT22;14509;47.992;7.848;2023-03-13T05:00:22;16.90;51.40
2439;DHT22;14509;47.992;7.848;2023-03-13T05:03:07;16.50;52.40
2439;DHT22;14509;47.992;7.848;2023-03-13T05:05:52;16.30;53.80
2439;DHT22;14509;47.992;7.848;2023-03-13T05:08:18;16.20;54.80
2439;DHT22;14509;47.992;7.848;2023-03-13T05:10:41;15.90;55.90
2439;DHT22;14509;47.992;7.848;2023-03-13T05:13:01;15.70;56.30
2439;DHT22;14509;47.992;7.848;2023-03-13T05:15:31;15.50;56.40
2439;DHT22;14509;47.992;7.848;2023-03-13T05:17:53;15.50;56.70
2439;DHT22;14509;47.992;7.848;2023-03-13T05:20:24;15.80;57.40
2439;DHT22;14509;47.992;7.848;2023-03-13T05:22:37;15.40;57.20
2439;DHT22;14509;47.992;7.848;2023-03-13T05:25:10;15.50;57.20
2439;DHT22;14509;47.992;7.848;2023-03-13T05:27:36;15.40;56.60
2439;DHT22;14509;47.992;7.848;2023-03-13T05:30:26;15.20;56.80
2439;DHT22;14509;47.992;7.848;2023-03-13T05:32:49;15.20;56.80
2439;DHT22;14509;47.992;7.848;2023-03-13T05:35:19;15.10;56.70
2439;DHT22;14509;47.992;7.848;2023-03-13T05:38:10;15.20;56.50
2439;DHT22;14509;47.992;7.848;2023-03-13T05:40:43;15.20;56.10
2439;DHT22;14509;47.992;7.848;2023-03-13T05:42:48;15.00;55.80
2439;DHT22;14509;47.992;7.848;2023-03-13T05:45:03;15.90;56.60
2439;DHT22;14509;47.992;7.848;2023-03-13T05:47:33;15.20;55.60
2439;DHT22;14509;47.992;7.848;2023-03-13T05:50:15;15.40;55.40
2439;DHT22;14509;47.992;7.848;2023-03-13T05:52:52;15.40;55.20
2439;DHT22;14509;47.992;7.848;2023-03-13T05:55:21;15.50;55.40
2439;DHT22;14509;47.992;7.848;2023-03-13T05:57:44;15.20;54.90
2439;DHT22;14509;47.992;7.848;2023-03-13T06:00:12;15.40;55.30
2439;DHT22;14509;47.992;7.848;2023-03-13T06:02:33;15.60;54.80
2439;DHT22;14509;47.992;7.848;2023-03-13T06:04:57;15.80;54.20
2439;DHT22;14509;47.992;7.848;2023-03-13T06:07:15;16.10;53.80
2439;DHT22;14509;47.992;7.848;2023-03-13T06:09:23;16.30;53.20
2439;DHT22;14509;47.992;7.848;2023-03-13T06:11:33;16.70;53.10
2439;DHT22;14509;47.992;7.848;2023-03-13T06:13:42;16.70;52.50
2439;DHT22;14509;47.992;7.848;2023-03-13T06:16:31;16.90;51.80
2439;DHT22;14509;47.992;7.848;2023-03-13T06:18:32;17.10;51.50
2439;DHT22;14509;47.992;7.848;2023-03-13T06:20:37;17.20;51.30
2439;DHT22;14509;47.992;7.848;2023-03-13T06:22:44;17.20;51.00
2439;DHT22;14509;47.992;7.848;2023-03-13T06:25:06;17.40;51.00
2439;DHT22;14509;47.992;7.848;2023-03-13T06:27:17;17.50;50.70
2439;DHT22;14509;47.992;7.848;2023-03-13T06:29:22;17.60;50.50
2439;DHT22;14509;47.992;7.848;2023-03-13T06:31:24;18.00;50.80
2439;DHT22;14509;47.992;7.848;2023-03-13T06:33:30;17.70;50.30
2439;DHT22;14509;47.992;7.848;2023-03-13T06:35:41;17.80;50.40
2439;DHT22;14509;47.992;7.848;2023-03-13T06:37:56;17.80;50.60
2439;DHT22;14509;47.992;7.848;2023-03-13T06:40:04;17.80;50.50
2439;DHT22;14509;47.992;7.848;2023-03-13T06:42:07;17.90;50.40
2439;DHT22;14509;47.992;7.848;2023-03-13T06:44:12;18.00;50.10
2439;DHT22;14509;47.992;7.848;2023-03-13T06:46:23;17.90;50.30
2439;DHT22;14509;47.992;7.848;2023-03-13T06:48:25;17.90;50.30
2439;DHT22;14509;47.992;7.848;2023-03-13T06:50:28;18.00;50.20
2439;DHT22;14509;47.992;7.848;2023-03-13T06:52:30;18.00;50.20
2439;DHT22;14509;47.992;7.848;2023-03-13T06:54:42;18.00;50.10
2439;DHT22;14509;47.992;7.848;2023-03-13T06:56:48;18.10;50.00
2439;DHT22;14509;47.992;7.848;2023-03-13T06:58:55;18.20;50.10
2439;DHT22;14509;47.992;7.848;2023-03-13T07:01:08;18.10;49.80
2439;DHT22;14509;47.992;7.848;2023-03-13T07:03:12;18.10;50.10
2439;DHT22;14509;47.992;7.848;2023-03-13T07:05:26;18.40;50.50
2439;DHT22;14509;47.992;7.848;2023-03-13T07:07:35;18.00;50.50
2439;DHT22;14509;47.992;7.848;2023-03-13T07:09:37;18.00;50.70
2439;DHT22;14509;47.992;7.848;2023-03-13T07:11:50;18.10;50.70
2439;DHT22;14509;47.992;7.848;2023-03-13T07:13:56;18.20;50.20
2439;DHT22;14509;47.992;7.848;2023-03-13T07:16:06;18.30;50.30
2439;DHT22;14509;47.992;7.848;2023-03-13T07:18:10;18.30;49.70
2439;DHT22;14509;47.992;7.848;2023-03-13T07:20:13;18.20;49.90
2439;DHT22;14509;47.992;7.848;2023-03-13T07:22:16;18.20;50.20
2439;DHT22;14509;47.992;7.848;2023-03-13T07:24:22;18.20;50.20
2439;DHT22;14509;47.992;7.848;2023-03-13T07:26:25;18.30;49.90
2439;DHT22;14509;47.992;7.848;2023-03-13T07:30:49;18.60;49.70
2439;DHT22;14509;47.992;7.848;2023-03-13T07:32:59;18.70;49.20
2439;DHT22;14509;47.992;7.848;2023-03-13T07:35:12;18.90;48.90
2439;DHT22;14509;47.992;7.848;2023-03-13T07:37:17;19.00;48.70
2439;DHT22;14509;47.992;7.848;2023-03-13T07:39:21;19.40;48.90
2439;DHT22;14509;47.992;7.848;2023-03-13T07:41:24;19.20;48.70
2439;DHT22;14509;47.992;7.848;2023-03-13T07:43:44;19.30;48.30
2439;DHT22;14509;47.992;7.848;2023-03-13T07:45:58;19.40;48.30
2439;DHT22;14509;47.992;7.848;2023-03-13T07:48:27;19.40;47.90
2439;DHT22;14509;47.992;7.848;2023-03-13T07:50:29;19.50;48.30
2439;DHT22;14509;47.992;7.848;2023-03-13T07:52:44;19.70;48.00
2439;DHT22;14509;47.992;7.848;2023-03-13T07:54:54;19.80;48.00
2439;DHT22;14509;47.992;7.848;2023-03-13T07:57:00;19.60;48.20
2439;DHT22;14509;47.992;7.848;2023-03-13T07:59:08;19.60;48.00
2439;DHT22;14509;47.992;7.848;2023-03-13T08:01:28;19.70;47.90
2439;DHT22;14509;47.992;7.848;2023-03-13T08:03:40;19.70;48.00
2439;DHT22;14509;47.992;7.848;2023-03-13T08:05:57;19.80;47.90
2439;DHT22;14509;47.992;7.848;2023-03-13T08:07:59;19.80;48.00
2439;DHT22;14509;47.992;7.848;2023-03-13T08:10:06;20.00;47.60
2439;DHT22;14509;47.992;7.848;2023-03-13T08:12:08;20.10;47.30
2439;DHT22;14509;47.992;7.848;2023-03-13T08:14:53;20.10;46.70
2439;DHT22;14509;47.992;7.848;2023-03-13T08:16:56;20.10;46.90
2439;DHT22;14509;47.992;7.848;2023-03-13T08:19:07;20.10;46.90
2439;DHT22;14509;47.992;7.848;2023-03-13T08:21:15;20.10;47.00
2439;DHT22;14509;47.992;7.848;2023-03-13T08:23:21;20.10;46.70
2439;DHT22;14509;47.992;7.848;2023-03-13T08:25:32;20.20;47.60
2439;DHT22;14509;47.992;7.848;2023-03-13T08:27:45;19.90;46.80
2439;DHT22;14509;47.992;7.848;2023-03-13T08:29:50;20.10;47.10
2439;DHT22;14509;47.992;7.848;2023-03-13T08:31:58;20.20;47.00
2439;DHT22;14509;47.992;7.848;2023-03-13T08:34:04;20.30;46.60
2439;DHT22;14509;47.992;7.848;2023-03-13T08:36:11;20.40;47.10
2439;DHT22;14509;47.992;7.848;2023-03-13T08:38:13;20.40;46.50
2439;DHT22;14509;47.992;7.848;2023-03-13T08:40:16;20.50;46.30
2439;DHT22;14509;47.992;7.848;2023-03-13T08:42:18;20.50;46.20
2439;DHT22;14509;47.992;7.848;2023-03-13T08:44:20;20.40;46.40
2439;DHT22;14509;47.992;7.848;2023-03-13T08:46:31;20.50;46.20
2439;DHT22;14509;47.992;7.848;2023-03-13T08:48:34;20.60;46.30
2439;DHT22;14509;47.992;7.848;2023-03-13T08:50:37;20.70;45.60
2439;DHT22;14509;47.992;7.848;2023-03-13T08:52:40;20.90;45.30
2439;DHT22;14509;47.992;7.848;2023-03-13T08:54:44;20.90;45.20
2439;DHT22;14509;47.992;7.848;2023-03-13T08:56:53;21.10;45.30
2439;DHT22;14509;47.992;7.848;2023-03-13T08:58:57;21.30;44.80
2439;DHT22;14509;47.992;7.848;2023-03-13T09:01:01;21.40;44.60
2439;DHT22;14509;47.992;7.848;2023-03-13T09:03:07;21.60;44.30
2439;DHT22;14509;47.992;7.848;2023-03-13T09:05:09;21.80;44.00
2439;DHT22;14509;47.992;7.848;2023-03-13T09:07:13;21.90;43.70
2439;DHT22;14509;47.992;7.848;2023-03-13T09:09:15;21.90;43.70
2439;DHT22;14509;47.992;7.848;2023-03-13T09:11:21;21.90;43.60
2439;DHT22;14509;47.992;7.848;2023-03-13T09:13:24;22.00;43.80
2439;DHT22;14509;47.992;7.848;2023-03-13T09:15:26;22.20;43.70
2439;DHT22;14509;47.992;7.848;2023-03-13T09:17:28;22.10;43.40
2439;DHT22;14509;47.992;7.848;2023-03-13T09:19:30;22.20;43.20
2439;DHT22;14509;47.992;7.848;2023-03-13T09:21:33;22.40;43.00
2439;DHT22;14509;47.992;7.848;2023-03-13T09:24:03;22.10;43.20
2439;DHT22;14509;47.992;7.848;2023-03-13T09:26:06;22.00;43.20
2439;DHT22;14509;47.992;7.848;2023-03-13T09:28:19;22.10;43.10
2439;DHT22;14509;47.992;7.848;2023-03-13T09:30:21;22.30;43.50
2439;DHT22;14509;47.992;7.848;2023-03-13T09:32:24;22.10;43.40
2439;DHT22;14509;47.992;7.848;2023-03-13T09:34:25;22.20;43.30
2439;DHT22;14509;47.992;7.848;2023-03-13T09:36:28;22.40;43.00
2439;DHT22;14509;47.992;7.848;2023-03-13T09:38:30;22.30;42.80
2439;DHT22;14509;47.992;7.848;2023-03-13T09:40:40;22.30;42.90
2439;DHT22;14509;47.992;7.848;2023-03-13T09:42:52;22.40;42.60
2439;DHT22;14509;47.992;7.848;2023-03-13T09:44:58;22.40;42.40
2439;DHT22;14509;47.992;7.848;2023-03-13T09:47:04;22.50;42.40
2439;DHT22;14509;47.992;7.848;2023-03-13T09:49:13;22.70;42.20
2439;DHT22;14509;47.992;7.848;2023-03-13T09:51:25;23.10;41.80
2439;DHT22;14509;47.992;7.848;2023-03-13T09:53:40;23.40;41.70
2439;DHT22;14509;47.992;7.848;2023-03-13T09:55:46;23.20;40.70
2439;DHT22;14509;47.992;7.848;2023-03-13T09:58:01;23.30;40.30
2439;DHT22;14509;47.992;7.848;2023-03-13T10:00:16;23.10;40.20
2439;DHT22;14509;47.992;7.848;2023-03-13T10:02:26;23.40;39.50
2439;DHT22;14509;47.992;7.848;2023-03-13T10:04:37;23.50;39.80
2439;DHT22;14509;47.992;7.848;2023-03-13T10:06:49;23.70;39.60
2439;DHT22;14509;47.992;7.848;2023-03-13T10:08:54;23.60;39.40
2439;DHT22;14509;47.992;7.848;2023-03-13T10:11:16;23.70;39.40
2439;DHT22;14509;47.992;7.848;2023-03-13T10:13:32;23.80;39.20
2439;DHT22;14509;47.992;7.848;2023-03-13T10:15:47;24.00;38.80
2439;DHT22;14509;47.992;7.848;2023-03-13T10:17:55;24.20;38.40
2439;DHT22;14509;47.992;7.848;2023-03-13T10:20:01;24.10;38.70
2439;DHT22;14509;47.992;7.848;2023-03-13T10:22:12;24.20;38.70
2439;DHT22;14509;47.992;7.848;2023-03-13T10:24:18;24.60;38.70
2439;DHT22;14509;47.992;7.848;2023-03-13T10:26:31;24.60;38.40
2439;DHT22;14509;47.992;7.848;2023-03-13T10:28:42;24.80;38.20
2439;DHT22;14509;47.992;7.848;2023-03-13T10:30:48;24.90;38.00
2439;DHT22;14509;47.992;7.848;2023-03-13T10:33:19;24.90;37.80
2439;DHT22;14509;47.992;7.848;2023-03-13T10:35:30;24.90;37.70
2439;DHT22;14509;47.992;7.848;2023-03-13T10:37:41;24.90;37.90
2439;DHT22;14509;47.992;7.848;2023-03-13T10:42:20;25.10;37.70
2439;DHT22;14509;47.992;7.848;2023-03-13T10:44:29;25.20;37.50
2439;DHT22;14509;47.992;7.848;2023-03-13T10:46:34;25.30;37.30
2439;DHT22;14509;47.992;7.848;2023-03-13T10:48:59;25.20;36.70
2439;DHT22;14509;47.992;7.848;2023-03-13T10:51:20;25.00;36.40
2439;DHT22;14509;47.992;7.848;2023-03-13T10:53:35;24.80;36.90
2439;DHT22;14509;47.992;7.848;2023-03-13T10:55:44;24.80;36.80
2439;DHT22;14509;47.992;7.848;2023-03-13T10:57:56;24.90;37.20
2439;DHT22;14509;47.992;7.848;2023-03-13T10:59:59;24.80;37.00
2439;DHT22;14509;47.992;7.848;2023-03-13T11:02:26;24.80;36.50
2439;DHT22;14509;47.992;7.848;2023-03-13T11:04:32;24.90;36.40
2439;DHT22;14509;47.992;7.848;2023-03-13T11:06:39;24.90;36.20
2439;DHT22;14509;47.992;7.848;2023-03-13T11:08:49;24.80;36.00
2439;DHT22;14509;47.992;7.848;2023-03-13T11:11:04;24.70;36.20
2439;DHT22;14509;47.992;7.848;2023-03-13T11:13:34;24.70;37.40
2439;DHT22;14509;47.992;7.848;2023-03-13T11:15:44;24.70;36.60
2439;DHT22;14509;47.992;7.848;2023-03-13T11:18:07;24.70;36.30
2439;DHT22;14509;47.992;7.848;2023-03-13T11:20:30;24.60;36.20
2439;DHT22;14509;47.992;7.848;2023-03-13T11:23:23;24.50;36.60
2439;DHT22;14509;47.992;7.848;2023-03-13T11:26:00;24.50;36.60
2439;DHT22;14509;47.992;7.848;2023-03-13T11:28:16;24.50;36.70
2439;DHT22;14509;47.992;7.848;2023-03-13T11:30:40;24.50;37.00
2439;DHT22;14509;47.992;7.848;2023-03-13T11:32:51;24.60;37.30
2439;DHT22;14509;47.992;7.848;2023-03-13T11:35:14;24.60;36.50
2439;DHT22;14509;47.992;7.848;2023-03-13T11:37:42;24.60;36.60
2439;DHT22;14509;47.992;7.848;2023-03-13T11:40:02;24.70;36.80
2439;DHT22;14509;47.992;7.848;2023-03-13T11:45:01;24.90;36.30
2439;DHT22;14509;47.992;7.848;2023-03-13T11:50:05;25.20;36.10
2439;DHT22;14509;47.992;7.848;2023-03-13T11:52:23;25.40;35.90
2439;DHT22;14509;47.992;7.848;2023-03-13T11:54:56;25.60;35.70
2439;DHT22;14509;47.992;7.848;2023-03-13T11:57:12;25.80;35.20
2439;DHT22;14509;47.992;7.848;2023-03-13T11:59:27;26.10;35.10
2439;DHT22;14509;47.992;7.848;2023-03-13T12:01:40;26.20;34.40
2439;DHT22;14509;47.992;7.848;2023-03-13T12:03:59;26.50;34.10
2439;DHT22;14509;47.992;7.848;2023-03-13T12:06:19;26.70;33.80
2439;DHT22;14509;47.992;7.848;2023-03-13T12:08:29;26.90;33.30
2439;DHT22;14509;47.992;7.848;2023-03-13T12:10:52;27.10;32.90
2439;DHT22;14509;47.992;7.848;2023-03-13T12:13:03;27.10;32.50
2439;DHT22;14509;47.992;7.848;2023-03-13T12:15:21;26.90;32.20
2439;DHT22;14509;47.992;7.848;2023-03-13T12:17:45;26.80;32.40
2439;DHT22;14509;47.992;7.848;2023-03-13T12:20:00;26.60;32.90
2439;DHT22;14509;47.992;7.848;2023-03-13T12:22:19;26.60;32.70
2439;DHT22;14509;47.992;7.848;2023-03-13T12:27:32;26.40;32.70
2439;DHT22;14509;47.992;7.848;2023-03-13T12:29:42;26.40;32.70
2439;DHT22;14509;47.992;7.848;2023-03-13T12:31:49;26.40;33.10
2439;DHT22;14509;47.992;7.848;2023-03-13T12:34:01;26.60;33.00
2439;DHT22;14509;47.992;7.848;2023-03-13T12:36:21;26.70;32.80
2439;DHT22;14509;47.992;7.848;2023-03-13T12:38:37;26.90;32.60
2439;DHT22;14509;47.992;7.848;2023-03-13T12:40:48;27.10;32.50
2439;DHT22;14509;47.992;7.848;2023-03-13T12:42:55;27.20;32.20
2439;DHT22;14509;47.992;7.848;2023-03-13T12:45:24;27.40;32.00
2439;DHT22;14509;47.992;7.848;2023-03-13T12:47:38;27.50;31.10
2439;DHT22;14509;47.992;7.848;2023-03-13T12:50:15;27.70;30.80
2439;DHT22;14509;47.992;7.848;2023-03-13T12:55:38;28.00;30.50
2439;DHT22;14509;47.992;7.848;2023-03-13T12:58:07;28.20;30.00
2439;DHT22;14509;47.992;7.848;2023-03-13T13:00:18;28.40;30.00
2439;DHT22;14509;47.992;7.848;2023-03-13T13:05:30;28.80;29.70
2439;DHT22;14509;47.992;7.848;2023-03-13T13:08:21;28.90;29.60
2439;DHT22;14509;47.992;7.848;2023-03-13T13:10:31;29.00;29.50
2439;DHT22;14509;47.992;7.848;2023-03-13T13:15:28;28.50;29.40
2439;DHT22;14509;47.992;7.848;2023-03-13T13:18:11;28.30;29.80
2439;DHT22;14509;47.992;7.848;2023-03-13T13:20:33;28.30;30.50
2439;DHT22;14509;47.992;7.848;2023-03-13T13:22:57;28.20;30.90
2439;DHT22;14509;47.992;7.848;2023-03-13T13:25:35;28.20;30.90
2439;DHT22;14509;47.992;7.848;2023-03-13T13:30:36;28.00;30.90
2439;DHT22;14509;47.992;7.848;2023-03-13T13:35:32;27.70;31.60
2439;DHT22;14509;47.992;7.848;2023-03-13T13:37:56;28.00;32.10
2439;DHT22;14509;47.992;7.848;2023-03-13T13:40:29;27.70;32.00
2439;DHT22;14509;47.992;7.848;2023-03-13T13:42:51;28.40;31.90
2439;DHT22;14509;47.992;7.848;2023-03-13T13:45:21;28.20;31.50
2439;DHT22;14509;47.992;7.848;2023-03-13T13:47:40;28.30;31.40
2439;DHT22;14509;47.992;7.848;2023-03-13T13:50:15;28.30;31.50
2439;DHT22;14509;47.992;7.848;2023-03-13T13:52:46;28.10;31.50
2439;DHT22;14509;47.992;7.848;2023-03-13T13:57:41;27.80;32.40
2439;DHT22;14509;47.992;7.848;2023-03-13T14:00:00;27.70;32.50
2439;DHT22;14509;47.992;7.848;2023-03-13T14:02:22;27.70;32.50
2439;DHT22;14509;47.992;7.848;2023-03-13T14:04:38;27.70;32.70
2439;DHT22;14509;47.992;7.848;2023-03-13T14:07:05;27.80;32.50
2439;DHT22;14509;47.992;7.848;2023-03-13T14:09:22;27.80;32.40
2439;DHT22;14509;47.992;7.848;2023-03-13T14:11:49;27.80;32.60
2439;DHT22;14509;47.992;7.848;2023-03-13T14:14:17;27.80;32.50
2439;DHT22;14509;47.992;7.848;2023-03-13T14:16:26;27.80;32.30
2439;DHT22;14509;47.992;7.848;2023-03-13T14:18:44;27.90;33.00
2439;DHT22;14509;47.992;7.848;2023-03-13T14:21:07;27.90;31.90
2439;DHT22;14509;47.992;7.848;2023-03-13T14:23:28;28.00;31.90
2439;DHT22;14509;47.992;7.848;2023-03-13T14:25:42;28.00;31.90
2439;DHT22;14509;47.992;7.848;2023-03-13T14:27:54;28.10;31.80
2439;DHT22;14509;47.992;7.848;2023-03-13T14:30:05;28.10;31.80
2439;DHT22;14509;47.992;7.848;2023-03-13T14:32:09;28.20;32.10
2439;DHT22;14509;47.992;7.848;2023-03-13T14:34:14;28.50;31.10
2439;DHT22;14509;47.992;7.848;2023-03-13T14:36:47;28.70;30.40
2439;DHT22;14509;47.992;7.848;2023-03-13T14:39:00;28.90;30.30
2439;DHT22;14509;47.992;7.848;2023-03-13T14:41:22;29.20;30.00